Flight Track Log - Related Links

Times and Time Zones

All times are in EDT time to prevent confusion due to time zone crossing. See the WIG7407 flight status page for this flight to view local times or setup timezone preferences in your user account.

Time Position Orientation Groundspeed Altitude Reporting Facility
EDT Latitude Longitude Course Direction KTS MPH feet Rate Location/Type
Thu 19:58:00 44.4204 -73.5098 189° South  Level Estimated
Thu 19:59:00 44.3819 -73.5165 187° South  Level FlightAware Approximate
Thu 20:00:00 44.3435 -73.5232 187° South  Level FlightAware Approximate
Thu 20:01:00 44.3050 -73.5299 187° South  Level FlightAware Approximate
Thu 20:02:00 44.2666 -73.5366 187° South  Level FlightAware Approximate
Thu 20:03:00 44.2281 -73.5433 187° South  Level FlightAware Approximate
Thu 20:04:00 44.1897 -73.5500 187° South  Level FlightAware Approximate
Thu 20:05:00 44.1512 -73.5566 187° South  Level FlightAware Approximate
Thu 20:06:00 44.1128 -73.5635 187° South  Level Estimated
Thu 20:07:00 44.0743 -73.5699 187° South  Level FlightAware Approximate
Thu 20:07:05 44.1378 -73.5017 187° South 146 168 8,000  Level Boston Center
Thu 20:08:00 44.0359 -73.5763 187° South  Level FlightAware Approximate
Thu 20:08:03 44.0981 -73.5097 188° South 141 162 8,000  Level Boston Center
Thu 20:09:00 43.9974 -73.5827 187° South  Level FlightAware Approximate
Thu 20:09:04 44.0625 -73.5178 189° South 141 162 8,000  Level Boston Center
Thu 20:10:00 43.9589 -73.5891 187° South  Level FlightAware Approximate
Thu 20:10:04 44.0311 -73.5258 190° South 141 162 8,000  Level Boston Center
Thu 20:11:00 43.9204 -73.5954 187° South  Level FlightAware Approximate
Thu 20:11:03 43.9914 -73.5339 188° South 146 168 8,000  Level Boston Center
Thu 20:12:03 43.9561 -73.5417 189° South 146 168 8,000  Level Boston Center
Thu 20:13:06 43.9183 -73.5525 192° South 146 168 8,000  Level Boston Center
Thu 20:14:03 43.8808 -73.5606 189° South 140 161 8,000  Level Boston Center
Thu 20:15:04 43.8453 -73.5686 189° South 140 161 8,000  Level Boston Center
Thu 20:16:05 43.8056 -73.5764 188° South 140 161 8,000  Level Boston Center
Thu 20:17:03 43.7700 -73.5844 189° South 140 161 8,000  Level Boston Center
Thu 20:18:04 43.7347 -73.5922 189° South 140 161 8,000  Level Boston Center
Thu 20:19:04 43.7011 -73.6031 193° South 135 155 8,000  Level Boston Center
Thu 20:20:05 43.6678 -73.6053 183° South 135 155 8,000  Level Boston Center
Thu 20:21:05 43.6322 -73.6133 189° South 135 155 8,000  Level Boston Center
Thu 20:21:17 43.6178 -73.6186 195° South 128 147 8,000  Level Boston Center
Thu 20:21:23 43.6156 -73.6186 180° South 127 146 8,000  Level Boston Center
Thu 20:22:03 43.5967 -73.6211 185° South 140 161 8,000  Level Boston Center
Thu 20:22:24 43.5800 -73.6267 194° South 129 148 8,000  Level Boston Center
Thu 20:23:03 43.5592 -73.6319 190° South 140 161 8,000  Level Boston Center
Thu 20:23:27 43.5444 -73.6344 187° South 136 157 8,000  Level Boston Center
Thu 20:24:03 43.5236 -73.6369 185° South 140 161 8,000  Level Boston Center
Thu 20:24:25 43.5028 -73.6450 196° South 134 154 8,000  Level Boston Center
Thu 20:25:05 43.4861 -73.6447 179° South 140 161 8,000  Level Boston Center
Thu 20:25:27 43.4672 -73.6531 198° South 130 150 8,000  Level Boston Center
Thu 20:26:03 43.4506 -73.6556 186° South 140 161 8,000  Level Boston Center
Thu 20:26:27 43.4339 -73.6581 186° South 130 150 8,000  Level Boston Center
Thu 20:27:03 43.4150 -73.6606 185° South 140 161 8,000  Level Boston Center
Thu 20:27:27 43.3983 -73.6658 193° South 128 147 8,000  Level Boston Center
Thu 20:28:03 43.3794 -73.6711 191° South 140 161 8,000 -300 Level Boston Center
Thu 20:28:27 43.3650 -73.6767 196° South 128 147 7,700  Descending Boston Center
Thu 20:29:04 43.3356 -73.6847 191° South 150 173 8,000 -1,125 Climbing Boston Center
Thu 20:29:31 43.3189 -73.6900 193° South 178 205 6,500 -1,900 Descending Boston Center
Thu 20:30:04 43.2939 -73.6953 189° South 164 189 6,100 -800 Descending Boston Center
Thu 20:30:31 43.2686 -73.7006 189° South 170 196 5,700 -885 Descending Boston Center
Thu 20:31:05 43.2436 -73.7114 198° South 169 194 5,200 -689 Descending Boston Center
Thu 20:31:32 43.2228 -73.7194 196° South 172 198 5,000 -610 Descending Boston Center
Thu 20:32:04 43.2017 -73.7247 190° South 169 194 4,600 -738 Descending Boston Center
Thu 20:32:37 43.1725 -73.7356 195° South 170 196 4,200 -590 Descending Boston Center
Thu 20:33:05 43.1517 -73.7406 190° South 175 201 4,000 -90 Descending Boston Center
Thu 20:33:44 43.1222 -73.7514 195° South 159 183 4,100 100 Climbing Boston Center
Thu 20:34:05 43.1139 -73.7511 179° South 165 190 4,100  Level Boston Center
Thu 20:34:44 43.0825 -73.7647 198° South 142 163 4,100 -400 Level Boston Center
Thu 20:35:05 43.0700 -73.7672 188° South 149 171 3,700 -1,200 Descending Boston Center
Thu 20:35:39 43.0428 -73.7781 196° South 168 193 3,000 -828 Descending Boston Center
Thu 20:36:03 43.0281 -73.7806 187° South 160 184 2,900  Descending Boston Center
Thu 20:36:39 42.9967 -73.7942 198° South 170 196 3,000 63 Climbing Boston Center
Thu 20:37:39 42.9550 -73.8047 191° South 148 170 3,000 -99 Level Boston Center
Thu 20:38:40 42.9131 -73.8178 193° South 154 177 2,800 -541 Descending Boston Center
Thu 20:39:41 42.8631 -73.8139 177° South 187 215 1,900 -645 Descending Boston Center
Thu 20:40:41 42.8172 -73.8100 176° South 169 194 1,500 -581 Descending Boston Center
Thu 20:41:45 42.7756 -73.8064 176° South 137 158 700 -750 Descending Boston Center
Thu 20:43:00 42.7491 -73.8020 190° South  Level Estimated
Thu 20:50:00 42.7491 -73.8020 190° South  Level Estimated
Thu 20:51:00 42.7491 -73.8020 190° South  Level Estimated
Thu 20:52:00 42.7491 -73.8020 190° South  Level Estimated

Login

Don't have an account? Register now (free) for customized features, flight alerts, and more!